sensor_id;sensor_type;location;lat;lon;timestamp;P1;durP1;ratioP1;P2;durP2;ratioP2
39896;SDS011;25567;48.276;14.242;2022-10-26T00:01:30;5.85;;;2.75;;
39896;SDS011;25567;48.276;14.242;2022-10-26T00:03:56;7.93;;;3.30;;
39896;SDS011;25567;48.276;14.242;2022-10-26T00:06:23;6.63;;;2.78;;
39896;SDS011;25567;48.276;14.242;2022-10-26T00:08:52;7.13;;;2.60;;
39896;SDS011;25567;48.276;14.242;2022-10-26T00:11:20;8.95;;;3.00;;
39896;SDS011;25567;48.276;14.242;2022-10-26T00:13:48;7.57;;;3.10;;
39896;SDS011;25567;48.276;14.242;2022-10-26T00:18:44;7.47;;;2.60;;
39896;SDS011;25567;48.276;14.242;2022-10-26T00:21:11;5.30;;;2.08;;
39896;SDS011;25567;48.276;14.242;2022-10-26T00:23:38;4.85;;;2.85;;
39896;SDS011;25567;48.276;14.242;2022-10-26T00:26:05;13.48;;;3.10;;
39896;SDS011;25567;48.276;14.242;2022-10-26T00:28:32;6.13;;;2.35;;
39896;SDS011;25567;48.276;14.242;2022-10-26T00:30:59;8.93;;;3.13;;
39896;SDS011;25567;48.276;14.242;2022-10-26T00:33:28;5.70;;;2.90;;
39896;SDS011;25567;48.276;14.242;2022-10-26T00:35:55;5.40;;;2.63;;
39896;SDS011;25567;48.276;14.242;2022-10-26T00:38:22;10.57;;;2.80;;
39896;SDS011;25567;48.276;14.242;2022-10-26T00:40:48;8.05;;;2.90;;
39896;SDS011;25567;48.276;14.242;2022-10-26T00:43:34;8.82;;;3.35;;
39896;SDS011;25567;48.276;14.242;2022-10-26T00:46:03;6.93;;;2.70;;
39896;SDS011;25567;48.276;14.242;2022-10-26T00:48:35;6.97;;;2.85;;
39896;SDS011;25567;48.276;14.242;2022-10-26T00:51:05;7.15;;;3.00;;
39896;SDS011;25567;48.276;14.242;2022-10-26T00:53:35;15.07;;;4.05;;
39896;SDS011;25567;48.276;14.242;2022-10-26T00:56:02;15.88;;;3.38;;
39896;SDS011;25567;48.276;14.242;2022-10-26T00:58:30;13.15;;;2.75;;
39896;SDS011;25567;48.276;14.242;2022-10-26T01:00:57;11.38;;;3.08;;
39896;SDS011;25567;48.276;14.242;2022-10-26T01:03:24;8.13;;;3.60;;
39896;SDS011;25567;48.276;14.242;2022-10-26T01:05:54;9.45;;;3.53;;
39896;SDS011;25567;48.276;14.242;2022-10-26T01:08:23;8.60;;;3.35;;
39896;SDS011;25567;48.276;14.242;2022-10-26T01:10:53;10.73;;;3.33;;
39896;SDS011;25567;48.276;14.242;2022-10-26T01:13:22;14.35;;;3.80;;
39896;SDS011;25567;48.276;14.242;2022-10-26T01:16:02;11.70;;;3.13;;
39896;SDS011;25567;48.276;14.242;2022-10-26T01:18:58;7.22;;;3.22;;
39896;SDS011;25567;48.276;14.242;2022-10-26T01:27:14;9.30;;;3.60;;
39896;SDS011;25567;48.276;14.242;2022-10-26T01:32:22;10.52;;;3.97;;
39896;SDS011;25567;48.276;14.242;2022-10-26T01:37:28;13.07;;;3.47;;
39896;SDS011;25567;48.276;14.242;2022-10-26T01:40:02;9.48;;;3.53;;
39896;SDS011;25567;48.276;14.242;2022-10-26T01:42:36;9.10;;;3.50;;
39896;SDS011;25567;48.276;14.242;2022-10-26T01:45:09;11.02;;;4.05;;
39896;SDS011;25567;48.276;14.242;2022-10-26T01:47:40;8.43;;;3.47;;
39896;SDS011;25567;48.276;14.242;2022-10-26T01:50:07;9.90;;;3.85;;
39896;SDS011;25567;48.276;14.242;2022-10-26T01:52:35;17.38;;;4.53;;
39896;SDS011;25567;48.276;14.242;2022-10-26T01:55:02;11.25;;;4.20;;
39896;SDS011;25567;48.276;14.242;2022-10-26T01:57:49;10.43;;;3.60;;
39896;SDS011;25567;48.276;14.242;2022-10-26T02:00:17;6.47;;;3.13;;
39896;SDS011;25567;48.276;14.242;2022-10-26T02:05:44;11.73;;;3.40;;
39896;SDS011;25567;48.276;14.242;2022-10-26T02:08:32;7.88;;;3.58;;
39896;SDS011;25567;48.276;14.242;2022-10-26T02:11:08;5.55;;;2.85;;
39896;SDS011;25567;48.276;14.242;2022-10-26T02:16:51;13.65;;;3.90;;
39896;SDS011;25567;48.276;14.242;2022-10-26T02:19:23;9.57;;;3.95;;
39896;SDS011;25567;48.276;14.242;2022-10-26T02:22:04;20.42;;;4.05;;
39896;SDS011;25567;48.276;14.242;2022-10-26T02:24:33;14.55;;;4.55;;
39896;SDS011;25567;48.276;14.242;2022-10-26T02:27:02;8.00;;;3.10;;
39896;SDS011;25567;48.276;14.242;2022-10-26T02:29:31;10.73;;;4.25;;
39896;SDS011;25567;48.276;14.242;2022-10-26T02:32:00;10.18;;;3.75;;
39896;SDS011;25567;48.276;14.242;2022-10-26T02:34:28;20.10;;;4.78;;
39896;SDS011;25567;48.276;14.242;2022-10-26T02:37:00;7.47;;;3.50;;
39896;SDS011;25567;48.276;14.242;2022-10-26T02:39:29;7.38;;;3.40;;
39896;SDS011;25567;48.276;14.242;2022-10-26T02:42:00;8.65;;;3.75;;
39896;SDS011;25567;48.276;14.242;2022-10-26T02:44:32;8.73;;;3.63;;
39896;SDS011;25567;48.276;14.242;2022-10-26T02:47:08;8.77;;;3.90;;
39896;SDS011;25567;48.276;14.242;2022-10-26T02:49:35;10.68;;;3.83;;
39896;SDS011;25567;48.276;14.242;2022-10-26T02:56:58;10.88;;;3.60;;
39896;SDS011;25567;48.276;14.242;2022-10-26T02:59:31;13.13;;;3.88;;
39896;SDS011;25567;48.276;14.242;2022-10-26T03:02:02;16.83;;;4.18;;
39896;SDS011;25567;48.276;14.242;2022-10-26T03:04:30;14.88;;;4.20;;
39896;SDS011;25567;48.276;14.242;2022-10-26T03:06:58;15.07;;;5.45;;
39896;SDS011;25567;48.276;14.242;2022-10-26T03:09:25;11.25;;;3.92;;
39896;SDS011;25567;48.276;14.242;2022-10-26T03:11:52;15.57;;;5.00;;
39896;SDS011;25567;48.276;14.242;2022-10-26T03:14:19;10.55;;;3.97;;
39896;SDS011;25567;48.276;14.242;2022-10-26T03:16:46;13.02;;;4.93;;
39896;SDS011;25567;48.276;14.242;2022-10-26T03:19:14;9.20;;;4.82;;
39896;SDS011;25567;48.276;14.242;2022-10-26T03:21:40;16.00;;;4.57;;
39896;SDS011;25567;48.276;14.242;2022-10-26T03:24:07;16.63;;;4.18;;
39896;SDS011;25567;48.276;14.242;2022-10-26T03:26:35;10.70;;;4.50;;
39896;SDS011;25567;48.276;14.242;2022-10-26T03:29:02;13.52;;;4.25;;
39896;SDS011;25567;48.276;14.242;2022-10-26T03:31:29;10.32;;;4.78;;
39896;SDS011;25567;48.276;14.242;2022-10-26T03:33:55;9.18;;;4.68;;
39896;SDS011;25567;48.276;14.242;2022-10-26T03:36:22;10.13;;;4.20;;
39896;SDS011;25567;48.276;14.242;2022-10-26T03:38:49;9.68;;;4.25;;
39896;SDS011;25567;48.276;14.242;2022-10-26T03:41:15;13.18;;;4.05;;
39896;SDS011;25567;48.276;14.242;2022-10-26T03:43:42;10.30;;;3.97;;
39896;SDS011;25567;48.276;14.242;2022-10-26T03:46:09;13.05;;;4.57;;
39896;SDS011;25567;48.276;14.242;2022-10-26T03:48:35;12.15;;;4.00;;
39896;SDS011;25567;48.276;14.242;2022-10-26T03:51:02;11.60;;;4.28;;
39896;SDS011;25567;48.276;14.242;2022-10-26T03:53:29;21.75;;;4.93;;
39896;SDS011;25567;48.276;14.242;2022-10-26T03:55:55;22.45;;;6.28;;
39896;SDS011;25567;48.276;14.242;2022-10-26T03:58:22;18.92;;;5.95;;
39896;SDS011;25567;48.276;14.242;2022-10-26T04:00:49;13.98;;;5.72;;
39896;SDS011;25567;48.276;14.242;2022-10-26T04:03:16;14.63;;;5.43;;
39896;SDS011;25567;48.276;14.242;2022-10-26T04:05:42;16.13;;;5.40;;
39896;SDS011;25567;48.276;14.242;2022-10-26T04:08:09;12.45;;;5.28;;
39896;SDS011;25567;48.276;14.242;2022-10-26T04:10:36;14.68;;;5.00;;
39896;SDS011;25567;48.276;14.242;2022-10-26T04:13:03;15.98;;;5.72;;
39896;SDS011;25567;48.276;14.242;2022-10-26T04:15:30;11.15;;;5.55;;
39896;SDS011;25567;48.276;14.242;2022-10-26T04:17:58;17.73;;;6.18;;
39896;SDS011;25567;48.276;14.242;2022-10-26T04:20:27;14.80;;;5.72;;
39896;SDS011;25567;48.276;14.242;2022-10-26T04:22:59;14.25;;;5.90;;
39896;SDS011;25567;48.276;14.242;2022-10-26T04:25:28;13.32;;;5.32;;
39896;SDS011;25567;48.276;14.242;2022-10-26T04:27:59;14.10;;;5.60;;
39896;SDS011;25567;48.276;14.242;2022-10-26T04:30:26;19.25;;;5.30;;
39896;SDS011;25567;48.276;14.242;2022-10-26T04:32:53;21.35;;;6.32;;
39896;SDS011;25567;48.276;14.242;2022-10-26T04:35:19;17.02;;;5.43;;
39896;SDS011;25567;48.276;14.242;2022-10-26T04:37:46;14.85;;;5.20;;
39896;SDS011;25567;48.276;14.242;2022-10-26T04:40:13;17.60;;;5.45;;
39896;SDS011;25567;48.276;14.242;2022-10-26T04:42:40;10.77;;;5.35;;
39896;SDS011;25567;48.276;14.242;2022-10-26T04:45:10;15.30;;;4.70;;
39896;SDS011;25567;48.276;14.242;2022-10-26T04:47:38;14.55;;;4.78;;
39896;SDS011;25567;48.276;14.242;2022-10-26T04:50:05;10.32;;;4.97;;
39896;SDS011;25567;48.276;14.242;2022-10-26T04:52:33;14.52;;;5.60;;
39896;SDS011;25567;48.276;14.242;2022-10-26T04:55:00;11.68;;;5.03;;
39896;SDS011;25567;48.276;14.242;2022-10-26T04:57:27;12.10;;;5.97;;
39896;SDS011;25567;48.276;14.242;2022-10-26T04:59:54;13.35;;;5.22;;
39896;SDS011;25567;48.276;14.242;2022-10-26T05:02:20;14.82;;;5.32;;
39896;SDS011;25567;48.276;14.242;2022-10-26T05:04:47;22.17;;;5.95;;
39896;SDS011;25567;48.276;14.242;2022-10-26T05:07:14;13.23;;;5.10;;
39896;SDS011;25567;48.276;14.242;2022-10-26T05:09:40;12.27;;;6.15;;
39896;SDS011;25567;48.276;14.242;2022-10-26T05:12:07;12.68;;;5.97;;
39896;SDS011;25567;48.276;14.242;2022-10-26T05:14:34;19.73;;;6.38;;
39896;SDS011;25567;48.276;14.242;2022-10-26T05:17:00;12.63;;;5.80;;
39896;SDS011;25567;48.276;14.242;2022-10-26T05:19:27;10.30;;;5.97;;
39896;SDS011;25567;48.276;14.242;2022-10-26T05:21:54;16.20;;;6.13;;
39896;SDS011;25567;48.276;14.242;2022-10-26T05:24:20;15.30;;;5.47;;
39896;SDS011;25567;48.276;14.242;2022-10-26T05:26:47;14.60;;;5.35;;
39896;SDS011;25567;48.276;14.242;2022-10-26T05:29:14;12.27;;;5.55;;
39896;SDS011;25567;48.276;14.242;2022-10-26T05:31:40;13.13;;;5.53;;
39896;SDS011;25567;48.276;14.242;2022-10-26T05:34:07;15.55;;;5.93;;
39896;SDS011;25567;48.276;14.242;2022-10-26T05:36:33;15.10;;;5.68;;
39896;SDS011;25567;48.276;14.242;2022-10-26T05:39:00;17.63;;;5.80;;
39896;SDS011;25567;48.276;14.242;2022-10-26T05:41:27;12.70;;;6.00;;
39896;SDS011;25567;48.276;14.242;2022-10-26T05:43:53;13.40;;;6.10;;
39896;SDS011;25567;48.276;14.242;2022-10-26T05:46:20;13.82;;;6.38;;
39896;SDS011;25567;48.276;14.242;2022-10-26T05:48:47;18.35;;;5.63;;
39896;SDS011;25567;48.276;14.242;2022-10-26T05:51:13;12.05;;;6.03;;
39896;SDS011;25567;48.276;14.242;2022-10-26T05:53:41;11.70;;;5.55;;
39896;SDS011;25567;48.276;14.242;2022-10-26T05:56:12;12.15;;;5.63;;
39896;SDS011;25567;48.276;14.242;2022-10-26T05:58:46;16.27;;;6.90;;
39896;SDS011;25567;48.276;14.242;2022-10-26T06:04:02;15.93;;;7.80;;
39896;SDS011;25567;48.276;14.242;2022-10-26T06:06:36;17.33;;;7.70;;
39896;SDS011;25567;48.276;14.242;2022-10-26T06:09:05;13.80;;;6.57;;
39896;SDS011;25567;48.276;14.242;2022-10-26T06:11:32;18.70;;;7.32;;
39896;SDS011;25567;48.276;14.242;2022-10-26T06:13:59;14.10;;;5.97;;
39896;SDS011;25567;48.276;14.242;2022-10-26T06:16:30;11.00;;;6.13;;
39896;SDS011;25567;48.276;14.242;2022-10-26T06:32:35;15.70;;;6.90;;
39896;SDS011;25567;48.276;14.242;2022-10-26T06:37:47;13.57;;;6.75;;
39896;SDS011;25567;48.276;14.242;2022-10-26T06:40:15;13.90;;;6.45;;
39896;SDS011;25567;48.276;14.242;2022-10-26T06:42:43;15.93;;;6.43;;
39896;SDS011;25567;48.276;14.242;2022-10-26T06:45:11;16.13;;;7.15;;
39896;SDS011;25567;48.276;14.242;2022-10-26T06:47:52;15.68;;;6.97;;
39896;SDS011;25567;48.276;14.242;2022-10-26T06:53:26;12.05;;;6.22;;
39896;SDS011;25567;48.276;14.242;2022-10-26T06:56:01;11.80;;;6.28;;
39896;SDS011;25567;48.276;14.242;2022-10-26T06:58:29;11.93;;;6.95;;
39896;SDS011;25567;48.276;14.242;2022-10-26T07:01:00;17.35;;;7.50;;
39896;SDS011;25567;48.276;14.242;2022-10-26T07:03:27;17.40;;;9.48;;
39896;SDS011;25567;48.276;14.242;2022-10-26T07:05:53;19.48;;;7.65;;
39896;SDS011;25567;48.276;14.242;2022-10-26T07:08:20;13.73;;;7.30;;
39896;SDS011;25567;48.276;14.242;2022-10-26T07:10:47;18.77;;;6.88;;
39896;SDS011;25567;48.276;14.242;2022-10-26T07:13:14;13.95;;;7.35;;
39896;SDS011;25567;48.276;14.242;2022-10-26T07:15:40;14.60;;;7.63;;
39896;SDS011;25567;48.276;14.242;2022-10-26T07:18:08;13.90;;;7.57;;
39896;SDS011;25567;48.276;14.242;2022-10-26T07:20:36;16.20;;;7.32;;
39896;SDS011;25567;48.276;14.242;2022-10-26T07:23:05;17.40;;;6.80;;
39896;SDS011;25567;48.276;14.242;2022-10-26T07:25:33;14.70;;;7.40;;
39896;SDS011;25567;48.276;14.242;2022-10-26T07:28:00;11.25;;;6.85;;
39896;SDS011;25567;48.276;14.242;2022-10-26T07:30:28;12.23;;;7.13;;
39896;SDS011;25567;48.276;14.242;2022-10-26T07:33:04;15.48;;;6.90;;
39896;SDS011;25567;48.276;14.242;2022-10-26T07:35:32;12.30;;;7.88;;
39896;SDS011;25567;48.276;14.242;2022-10-26T07:37:59;15.88;;;7.13;;
39896;SDS011;25567;48.276;14.242;2022-10-26T07:40:27;13.05;;;7.47;;
39896;SDS011;25567;48.276;14.242;2022-10-26T07:42:55;14.20;;;7.55;;
39896;SDS011;25567;48.276;14.242;2022-10-26T07:45:24;17.75;;;7.38;;
39896;SDS011;25567;48.276;14.242;2022-10-26T07:47:51;17.58;;;7.82;;
39896;SDS011;25567;48.276;14.242;2022-10-26T07:50:18;19.10;;;6.88;;
39896;SDS011;25567;48.276;14.242;2022-10-26T07:52:44;14.57;;;7.03;;
39896;SDS011;25567;48.276;14.242;2022-10-26T07:55:11;17.27;;;7.03;;
39896;SDS011;25567;48.276;14.242;2022-10-26T07:57:38;11.40;;;7.28;;
39896;SDS011;25567;48.276;14.242;2022-10-26T08:00:06;13.60;;;6.72;;
39896;SDS011;25567;48.276;14.242;2022-10-26T08:02:34;16.40;;;7.35;;
39896;SDS011;25567;48.276;14.242;2022-10-26T08:05:01;14.18;;;7.95;;
39896;SDS011;25567;48.276;14.242;2022-10-26T08:07:28;22.58;;;9.07;;
39896;SDS011;25567;48.276;14.242;2022-10-26T08:09:54;20.00;;;9.93;;
39896;SDS011;25567;48.276;14.242;2022-10-26T08:12:21;21.35;;;9.90;;
39896;SDS011;25567;48.276;14.242;2022-10-26T08:14:48;15.05;;;8.48;;
39896;SDS011;25567;48.276;14.242;2022-10-26T08:17:18;12.18;;;6.80;;
39896;SDS011;25567;48.276;14.242;2022-10-26T08:19:47;16.05;;;7.30;;
39896;SDS011;25567;48.276;14.242;2022-10-26T08:22:14;13.27;;;6.30;;
39896;SDS011;25567;48.276;14.242;2022-10-26T08:24:41;20.98;;;7.88;;
39896;SDS011;25567;48.276;14.242;2022-10-26T08:27:09;16.25;;;8.60;;
39896;SDS011;25567;48.276;14.242;2022-10-26T08:29:35;15.43;;;9.25;;
39896;SDS011;25567;48.276;14.242;2022-10-26T08:32:02;18.77;;;9.43;;
39896;SDS011;25567;48.276;14.242;2022-10-26T08:34:29;21.05;;;10.15;;
39896;SDS011;25567;48.276;14.242;2022-10-26T08:36:56;21.02;;;9.18;;
39896;SDS011;25567;48.276;14.242;2022-10-26T08:39:22;21.20;;;9.25;;
39896;SDS011;25567;48.276;14.242;2022-10-26T08:41:50;20.48;;;7.78;;
39896;SDS011;25567;48.276;14.242;2022-10-26T08:44:25;13.70;;;7.03;;
39896;SDS011;25567;48.276;14.242;2022-10-26T08:47:04;13.43;;;6.95;;
39896;SDS011;25567;48.276;14.242;2022-10-26T08:49:40;12.65;;;6.18;;
39896;SDS011;25567;48.276;14.242;2022-10-26T08:52:15;16.25;;;6.57;;
39896;SDS011;25567;48.276;14.242;2022-10-26T08:54:49;13.63;;;6.60;;
39896;SDS011;25567;48.276;14.242;2022-10-26T08:57:20;10.98;;;5.78;;
39896;SDS011;25567;48.276;14.242;2022-10-26T08:59:55;17.08;;;6.03;;
39896;SDS011;25567;48.276;14.242;2022-10-26T09:02:25;12.00;;;6.18;;
39896;SDS011;25567;48.276;14.242;2022-10-26T09:04:52;10.57;;;6.10;;
39896;SDS011;25567;48.276;14.242;2022-10-26T09:07:24;13.98;;;5.90;;
39896;SDS011;25567;48.276;14.242;2022-10-26T09:15:10;8.93;;;5.65;;
39896;SDS011;25567;48.276;14.242;2022-10-26T09:17:42;9.73;;;5.57;;
39896;SDS011;25567;48.276;14.242;2022-10-26T09:20:36;10.20;;;6.00;;
39896;SDS011;25567;48.276;14.242;2022-10-26T09:26:23;18.73;;;6.40;;
39896;SDS011;25567;48.276;14.242;2022-10-26T09:28:56;12.32;;;6.43;;
39896;SDS011;25567;48.276;14.242;2022-10-26T09:31:26;11.23;;;6.35;;
39896;SDS011;25567;48.276;14.242;2022-10-26T09:33:55;15.30;;;6.10;;
39896;SDS011;25567;48.276;14.242;2022-10-26T09:36:23;10.70;;;5.93;;
39896;SDS011;25567;48.276;14.242;2022-10-26T09:38:52;15.50;;;6.47;;
39896;SDS011;25567;48.276;14.242;2022-10-26T09:41:29;16.25;;;6.53;;
39896;SDS011;25567;48.276;14.242;2022-10-26T09:44:17;11.02;;;6.43;;
39896;SDS011;25567;48.276;14.242;2022-10-26T09:49:48;15.23;;;7.07;;
39896;SDS011;25567;48.276;14.242;2022-10-26T09:52:19;18.05;;;7.65;;
39896;SDS011;25567;48.276;14.242;2022-10-26T09:54:46;15.68;;;8.10;;
39896;SDS011;25567;48.276;14.242;2022-10-26T09:57:13;23.30;;;10.30;;
39896;SDS011;25567;48.276;14.242;2022-10-26T09:59:43;31.35;;;11.85;;
39896;SDS011;25567;48.276;14.242;2022-10-26T10:02:30;27.20;;;11.20;;
39896;SDS011;25567;48.276;14.242;2022-10-26T10:04:59;24.87;;;9.10;;
39896;SDS011;25567;48.276;14.242;2022-10-26T10:07:26;27.15;;;8.88;;
39896;SDS011;25567;48.276;14.242;2022-10-26T10:12:40;20.40;;;9.48;;
39896;SDS011;25567;48.276;14.242;2022-10-26T10:17:52;15.63;;;8.90;;
39896;SDS011;25567;48.276;14.242;2022-10-26T10:20:23;22.40;;;10.07;;
39896;SDS011;25567;48.276;14.242;2022-10-26T10:30:52;27.27;;;11.20;;
39896;SDS011;25567;48.276;14.242;2022-10-26T10:33:22;30.67;;;10.70;;
39896;SDS011;25567;48.276;14.242;2022-10-26T10:35:58;26.42;;;11.90;;
39896;SDS011;25567;48.276;14.242;2022-10-26T10:38:28;20.77;;;9.90;;
39896;SDS011;25567;48.276;14.242;2022-10-26T10:40:57;35.88;;;11.35;;
39896;SDS011;25567;48.276;14.242;2022-10-26T10:43:25;38.85;;;12.63;;
39896;SDS011;25567;48.276;14.242;2022-10-26T10:45:53;35.90;;;13.93;;
39896;SDS011;25567;48.276;14.242;2022-10-26T10:48:26;35.15;;;14.52;;
39896;SDS011;25567;48.276;14.242;2022-10-26T10:53:24;38.50;;;16.15;;
39896;SDS011;25567;48.276;14.242;2022-10-26T10:56:01;50.38;;;18.73;;
39896;SDS011;25567;48.276;14.242;2022-10-26T11:01:16;43.10;;;17.92;;
39896;SDS011;25567;48.276;14.242;2022-10-26T11:03:53;41.15;;;16.25;;
39896;SDS011;25567;48.276;14.242;2022-10-26T11:06:44;30.92;;;12.23;;
39896;SDS011;25567;48.276;14.242;2022-10-26T11:09:14;33.28;;;11.68;;
39896;SDS011;25567;48.276;14.242;2022-10-26T11:11:46;21.67;;;10.65;;
39896;SDS011;25567;48.276;14.242;2022-10-26T11:17:10;15.00;;;5.03;;
39896;SDS011;25567;48.276;14.242;2022-10-26T11:19:42;15.02;;;5.65;;
39896;SDS011;25567;48.276;14.242;2022-10-26T11:22:19;7.78;;;3.83;;
39896;SDS011;25567;48.276;14.242;2022-10-26T11:35:25;11.73;;;5.10;;
39896;SDS011;25567;48.276;14.242;2022-10-26T11:38:11;16.25;;;5.20;;
39896;SDS011;25567;48.276;14.242;2022-10-26T11:41:08;11.57;;;4.82;;
39896;SDS011;25567;48.276;14.242;2022-10-26T11:43:44;14.70;;;4.55;;
39896;SDS011;25567;48.276;14.242;2022-10-26T11:48:59;10.32;;;4.10;;
39896;SDS011;25567;48.276;14.242;2022-10-26T11:54:23;9.65;;;3.95;;
39896;SDS011;25567;48.276;14.242;2022-10-26T11:56:56;7.93;;;3.78;;
39896;SDS011;25567;48.276;14.242;2022-10-26T11:59:25;10.35;;;4.00;;
39896;SDS011;25567;48.276;14.242;2022-10-26T12:02:04;11.70;;;3.97;;
39896;SDS011;25567;48.276;14.242;2022-10-26T12:04:36;10.57;;;3.75;;
39896;SDS011;25567;48.276;14.242;2022-10-26T12:07:07;15.05;;;3.97;;
39896;SDS011;25567;48.276;14.242;2022-10-26T12:09:38;9.93;;;3.70;;
39896;SDS011;25567;48.276;14.242;2022-10-26T12:12:15;14.27;;;3.58;;
39896;SDS011;25567;48.276;14.242;2022-10-26T12:14:55;12.80;;;3.55;;
39896;SDS011;25567;48.276;14.242;2022-10-26T12:23:07;9.63;;;3.70;;
39896;SDS011;25567;48.276;14.242;2022-10-26T12:25:42;12.13;;;3.22;;
39896;SDS011;25567;48.276;14.242;2022-10-26T12:34:12;11.48;;;3.38;;
39896;SDS011;25567;48.276;14.242;2022-10-26T12:39:28;12.68;;;3.80;;
39896;SDS011;25567;48.276;14.242;2022-10-26T12:44:31;8.68;;;3.20;;
39896;SDS011;25567;48.276;14.242;2022-10-26T12:47:01;7.28;;;3.25;;
39896;SDS011;25567;48.276;14.242;2022-10-26T12:59:31;11.50;;;3.55;;
39896;SDS011;25567;48.276;14.242;2022-10-26T13:04:07;11.18;;;3.15;;
39896;SDS011;25567;48.276;14.242;2022-10-26T13:09:45;8.93;;;3.00;;
39896;SDS011;25567;48.276;14.242;2022-10-26T13:12:27;10.88;;;3.60;;
39896;SDS011;25567;48.276;14.242;2022-10-26T13:15:02;8.00;;;3.10;;
39896;SDS011;25567;48.276;14.242;2022-10-26T13:17:32;11.00;;;3.35;;
39896;SDS011;25567;48.276;14.242;2022-10-26T13:20:00;9.55;;;3.35;;
39896;SDS011;25567;48.276;14.242;2022-10-26T13:22:29;9.65;;;3.38;;
39896;SDS011;25567;48.276;14.242;2022-10-26T13:24:58;8.23;;;3.80;;
39896;SDS011;25567;48.276;14.242;2022-10-26T13:27:40;8.55;;;3.30;;
39896;SDS011;25567;48.276;14.242;2022-10-26T13:32:36;12.07;;;3.22;;
39896;SDS011;25567;48.276;14.242;2022-10-26T13:35:08;10.45;;;3.40;;
39896;SDS011;25567;48.276;14.242;2022-10-26T13:37:40;8.38;;;3.35;;
39896;SDS011;25567;48.276;14.242;2022-10-26T13:40:15;14.40;;;3.53;;
39896;SDS011;25567;48.276;14.242;2022-10-26T13:42:45;7.20;;;3.35;;
39896;SDS011;25567;48.276;14.242;2022-10-26T13:45:18;12.98;;;3.42;;
39896;SDS011;25567;48.276;14.242;2022-10-26T13:50:32;13.25;;;3.35;;
39896;SDS011;25567;48.276;14.242;2022-10-26T13:53:06;6.85;;;3.50;;
39896;SDS011;25567;48.276;14.242;2022-10-26T13:55:46;14.63;;;3.58;;
39896;SDS011;25567;48.276;14.242;2022-10-26T14:03:29;8.93;;;3.63;;
39896;SDS011;25567;48.276;14.242;2022-10-26T14:05:56;6.55;;;3.10;;
39896;SDS011;25567;48.276;14.242;2022-10-26T14:08:23;13.80;;;3.50;;
39896;SDS011;25567;48.276;14.242;2022-10-26T14:10:52;10.52;;;3.08;;
39896;SDS011;25567;48.276;14.242;2022-10-26T14:13:22;7.88;;;3.17;;
39896;SDS011;25567;48.276;14.242;2022-10-26T14:15:52;11.23;;;3.40;;
39896;SDS011;25567;48.276;14.242;2022-10-26T14:18:23;10.73;;;3.03;;
39896;SDS011;25567;48.276;14.242;2022-10-26T14:20:54;13.23;;;3.53;;
39896;SDS011;25567;48.276;14.242;2022-10-26T14:23:45;6.90;;;3.33;;
39896;SDS011;25567;48.276;14.242;2022-10-26T14:26:40;13.10;;;3.17;;
39896;SDS011;25567;48.276;14.242;2022-10-26T14:29:13;9.23;;;3.15;;
39896;SDS011;25567;48.276;14.242;2022-10-26T14:31:43;17.95;;;3.35;;
39896;SDS011;25567;48.276;14.242;2022-10-26T14:34:10;8.43;;;3.10;;
39896;SDS011;25567;48.276;14.242;2022-10-26T14:36:39;7.32;;;2.90;;
39896;SDS011;25567;48.276;14.242;2022-10-26T14:39:19;9.73;;;3.42;;
39896;SDS011;25567;48.276;14.242;2022-10-26T14:41:49;11.45;;;3.45;;
39896;SDS011;25567;48.276;14.242;2022-10-26T14:44:21;9.52;;;3.28;;
39896;SDS011;25567;48.276;14.242;2022-10-26T14:46:49;7.78;;;3.17;;
39896;SDS011;25567;48.276;14.242;2022-10-26T14:49:21;10.52;;;3.45;;
39896;SDS011;25567;48.276;14.242;2022-10-26T14:51:58;9.70;;;3.45;;
39896;SDS011;25567;48.276;14.242;2022-10-26T14:54:29;8.25;;;3.25;;
39896;SDS011;25567;48.276;14.242;2022-10-26T14:56:58;7.82;;;3.58;;
39896;SDS011;25567;48.276;14.242;2022-10-26T14:59:33;6.28;;;3.25;;
39896;SDS011;25567;48.276;14.242;2022-10-26T15:07:41;8.20;;;3.30;;
39896;SDS011;25567;48.276;14.242;2022-10-26T15:10:48;8.65;;;3.60;;
39896;SDS011;25567;48.276;14.242;2022-10-26T15:15:57;8.75;;;3.83;;
39896;SDS011;25567;48.276;14.242;2022-10-26T15:18:35;8.90;;;3.28;;
39896;SDS011;25567;48.276;14.242;2022-10-26T15:21:06;7.13;;;3.15;;
39896;SDS011;25567;48.276;14.242;2022-10-26T15:23:46;10.90;;;3.13;;
39896;SDS011;25567;48.276;14.242;2022-10-26T15:26:14;18.70;;;6.20;;
39896;SDS011;25567;48.276;14.242;2022-10-26T15:28:41;9.15;;;4.60;;
39896;SDS011;25567;48.276;14.242;2022-10-26T15:33:36;14.95;;;6.20;;
39896;SDS011;25567;48.276;14.242;2022-10-26T15:36:11;14.45;;;5.60;;
39896;SDS011;25567;48.276;14.242;2022-10-26T15:38:40;12.38;;;4.40;;
39896;SDS011;25567;48.276;14.242;2022-10-26T15:41:12;8.50;;;3.65;;
39896;SDS011;25567;48.276;14.242;2022-10-26T15:43:49;9.70;;;3.80;;
39896;SDS011;25567;48.276;14.242;2022-10-26T15:46:18;11.45;;;4.00;;
39896;SDS011;25567;48.276;14.242;2022-10-26T15:48:47;7.57;;;3.72;;
39896;SDS011;25567;48.276;14.242;2022-10-26T15:51:20;9.20;;;3.78;;
39896;SDS011;25567;48.276;14.242;2022-10-26T15:53:46;11.75;;;3.83;;
39896;SDS011;25567;48.276;14.242;2022-10-26T15:56:15;10.48;;;4.15;;
39896;SDS011;25567;48.276;14.242;2022-10-26T15:58:44;14.15;;;4.75;;
39896;SDS011;25567;48.276;14.242;2022-10-26T16:03:54;13.20;;;4.35;;
39896;SDS011;25567;48.276;14.242;2022-10-26T16:06:24;13.45;;;4.85;;
39896;SDS011;25567;48.276;14.242;2022-10-26T16:08:54;14.25;;;5.57;;
39896;SDS011;25567;48.276;14.242;2022-10-26T16:11:23;19.80;;;5.65;;
39896;SDS011;25567;48.276;14.242;2022-10-26T16:13:50;12.90;;;5.70;;
39896;SDS011;25567;48.276;14.242;2022-10-26T16:16:17;16.27;;;5.60;;
39896;SDS011;25567;48.276;14.242;2022-10-26T16:18:45;12.90;;;6.10;;
39896;SDS011;25567;48.276;14.242;2022-10-26T16:21:15;13.13;;;6.32;;
39896;SDS011;25567;48.276;14.242;2022-10-26T16:23:45;23.27;;;6.53;;
39896;SDS011;25567;48.276;14.242;2022-10-26T16:26:13;18.42;;;6.43;;
39896;SDS011;25567;48.276;14.242;2022-10-26T16:28:40;19.02;;;6.90;;
39896;SDS011;25567;48.276;14.242;2022-10-26T16:31:09;19.30;;;6.45;;
39896;SDS011;25567;48.276;14.242;2022-10-26T16:33:37;12.50;;;6.18;;
39896;SDS011;25567;48.276;14.242;2022-10-26T16:36:04;13.18;;;6.28;;
39896;SDS011;25567;48.276;14.242;2022-10-26T16:38:31;17.77;;;7.10;;
39896;SDS011;25567;48.276;14.242;2022-10-26T16:40:59;16.88;;;6.85;;
39896;SDS011;25567;48.276;14.242;2022-10-26T16:43:27;20.88;;;6.82;;
39896;SDS011;25567;48.276;14.242;2022-10-26T16:45:55;14.50;;;6.20;;
39896;SDS011;25567;48.276;14.242;2022-10-26T16:48:22;15.80;;;6.75;;
39896;SDS011;25567;48.276;14.242;2022-10-26T16:50:49;14.38;;;6.95;;
39896;SDS011;25567;48.276;14.242;2022-10-26T16:53:16;13.93;;;6.25;;
39896;SDS011;25567;48.276;14.242;2022-10-26T16:55:44;23.92;;;7.25;;
39896;SDS011;25567;48.276;14.242;2022-10-26T16:58:11;13.73;;;5.70;;
39896;SDS011;25567;48.276;14.242;2022-10-26T17:00:37;13.65;;;6.00;;
39896;SDS011;25567;48.276;14.242;2022-10-26T17:03:04;15.50;;;6.65;;
39896;SDS011;25567;48.276;14.242;2022-10-26T17:05:31;16.55;;;6.28;;
39896;SDS011;25567;48.276;14.242;2022-10-26T17:07:58;16.55;;;6.80;;
39896;SDS011;25567;48.276;14.242;2022-10-26T17:10:24;21.25;;;7.25;;
39896;SDS011;25567;48.276;14.242;2022-10-26T17:12:54;20.08;;;7.88;;